createdAt,value
2022-12-08T00:01:31.476Z,-0.10
2022-12-08T00:04:00.940Z,0.10
2022-12-08T00:06:50.376Z,0.30
2022-12-08T00:09:34.715Z,1.50
2022-12-08T00:12:18.077Z,0.40
2022-12-08T00:14:49.937Z,0.30
2022-12-08T00:17:17.827Z,0.00
2022-12-08T00:22:15.506Z,-0.10
2022-12-08T00:24:45.814Z,2.30
2022-12-08T00:27:15.452Z,0.80
2022-12-08T00:29:46.646Z,0.30
2022-12-08T00:32:14.664Z,0.20
2022-12-08T00:34:42.556Z,0.20
2022-12-08T00:37:10.152Z,0.20
2022-12-08T00:39:38.163Z,-0.30
2022-12-08T00:42:14.547Z,0.20
2022-12-08T00:44:44.380Z,0.40
2022-12-08T00:47:12.979Z,0.30
2022-12-08T00:49:41.260Z,0.10
2022-12-08T00:52:09.196Z,0.50
2022-12-08T00:54:36.763Z,0.40
2022-12-08T00:57:04.383Z,0.40
2022-12-08T01:02:00.300Z,1.30
2022-12-08T01:04:28.020Z,0.30
2022-12-08T01:14:19.422Z,0.30
2022-12-08T01:16:47.219Z,0.30
2022-12-08T01:19:16.994Z,2.50
2022-12-08T01:21:45.558Z,0.10
2022-12-08T01:24:15.427Z,2.60
2022-12-08T01:29:12.150Z,0.50
2022-12-08T01:31:39.973Z,0.50
2022-12-08T01:34:08.871Z,0.80
2022-12-08T01:36:37.355Z,0.50
2022-12-08T01:39:13.678Z,0.50
2022-12-08T01:46:43.139Z,0.40
2022-12-08T01:49:21.077Z,0.60
2022-12-08T01:51:54.235Z,1.90
2022-12-08T01:54:26.694Z,0.60
2022-12-08T01:57:17.794Z,0.70
2022-12-08T01:59:50.069Z,0.60
2022-12-08T02:02:17.460Z,0.70
2022-12-08T02:04:45.174Z,0.60
2022-12-08T02:07:13.510Z,0.70
2022-12-08T02:09:42.772Z,1.20
2022-12-08T02:12:11.407Z,0.70
2022-12-08T02:14:39.586Z,1.90
2022-12-08T02:17:32.419Z,0.90
2022-12-08T02:20:15.121Z,0.50
2022-12-08T02:23:01.096Z,0.70
2022-12-08T02:25:53.508Z,0.70
2022-12-08T02:28:39.478Z,0.90
2022-12-08T02:31:23.442Z,0.90
2022-12-08T02:34:12.615Z,1.20
2022-12-08T02:36:58.340Z,1.00
2022-12-08T02:42:06.266Z,1.00
2022-12-08T02:44:46.523Z,1.30
2022-12-08T02:47:18.068Z,0.90
2022-12-08T02:49:45.573Z,0.90
2022-12-08T02:54:45.331Z,0.90
2022-12-08T02:57:27.360Z,1.10
2022-12-08T03:00:04.707Z,3.20
2022-12-08T03:02:47.472Z,0.70
2022-12-08T03:05:14.790Z,0.90
2022-12-08T03:07:55.712Z,0.90
2022-12-08T03:10:29.683Z,0.60
2022-12-08T03:13:14.520Z,0.90
2022-12-08T03:15:46.309Z,0.60
2022-12-08T03:18:16.068Z,0.80
2022-12-08T03:20:46.031Z,0.90
2022-12-08T03:23:16.147Z,0.80
2022-12-08T03:25:58.643Z,0.60
2022-12-08T03:28:26.211Z,0.80
2022-12-08T03:30:58.064Z,1.10
2022-12-08T03:33:30.683Z,0.80
2022-12-08T03:36:01.994Z,0.70
2022-12-08T03:38:41.926Z,0.70
2022-12-08T03:41:20.091Z,0.80
2022-12-08T03:43:54.897Z,0.70
2022-12-08T03:48:51.705Z,2.30
2022-12-08T03:51:20.167Z,0.70
2022-12-08T03:53:48.290Z,0.70
2022-12-08T03:56:32.143Z,0.70
2022-12-08T04:01:28.430Z,0.80
2022-12-08T04:03:56.095Z,0.60
2022-12-08T04:06:23.824Z,0.60
2022-12-08T04:08:52.164Z,0.90
2022-12-08T04:11:20.410Z,0.90
2022-12-08T04:13:48.579Z,0.60
2022-12-08T04:16:18.086Z,0.60
2022-12-08T04:18:46.095Z,0.50
2022-12-08T04:21:14.245Z,0.50
2022-12-08T04:23:42.597Z,0.70
2022-12-08T04:26:10.312Z,0.50
2022-12-08T04:28:38.066Z,0.50
2022-12-08T04:31:05.688Z,0.40
2022-12-08T04:33:33.507Z,0.50
2022-12-08T04:36:01.212Z,0.00
2022-12-08T04:38:28.785Z,0.40
2022-12-08T04:40:56.079Z,0.50
2022-12-08T04:43:23.783Z,0.50
2022-12-08T04:45:51.065Z,0.60
2022-12-08T04:48:18.876Z,0.30
2022-12-08T04:50:46.603Z,0.30
2022-12-08T04:53:14.234Z,0.50
2022-12-08T04:55:44.360Z,0.60
2022-12-08T04:58:17.164Z,0.30
2022-12-08T05:03:13.383Z,0.30
2022-12-08T05:05:41.742Z,0.20
2022-12-08T05:08:10.225Z,0.20
2022-12-08T05:10:37.693Z,0.40
2022-12-08T05:13:05.422Z,0.20
2022-12-08T05:15:32.780Z,-0.10
2022-12-08T05:18:00.282Z,0.20
2022-12-08T05:20:27.732Z,0.80
2022-12-08T05:22:55.259Z,1.50
2022-12-08T05:25:22.606Z,0.20
2022-12-08T05:27:50.462Z,1.70
2022-12-08T05:30:18.003Z,0.10
2022-12-08T05:32:45.713Z,0.20
2022-12-08T05:35:13.036Z,0.10
2022-12-08T05:37:40.771Z,-0.30
2022-12-08T05:40:08.609Z,0.60
2022-12-08T05:45:05.211Z,-0.10
2022-12-08T05:47:35.991Z,-0.40
2022-12-08T05:50:04.378Z,-0.20
2022-12-08T05:52:32.601Z,-0.20
2022-12-08T05:55:00.355Z,-0.40
2022-12-08T05:57:28.152Z,-0.20
2022-12-08T05:59:57.151Z,-0.40
2022-12-08T06:02:24.818Z,-0.40
2022-12-08T06:04:52.123Z,0.60
2022-12-08T06:07:19.779Z,-0.50
2022-12-08T06:09:46.993Z,1.50
2022-12-08T06:12:16.239Z,-0.60
2022-12-08T06:14:43.578Z,-0.70
2022-12-08T06:17:11.200Z,-0.70
2022-12-08T06:19:38.423Z,-0.80
2022-12-08T06:22:05.996Z,-0.60
2022-12-08T06:24:33.315Z,1.40
2022-12-08T06:27:00.797Z,-0.70
2022-12-08T06:29:27.968Z,-0.70
2022-12-08T06:31:55.576Z,-0.70
2022-12-08T06:34:22.894Z,0.70
2022-12-08T06:36:50.540Z,-0.60
2022-12-08T06:39:17.959Z,0.90
2022-12-08T06:42:03.893Z,-0.60
2022-12-08T06:44:31.122Z,-0.60
2022-12-08T06:46:58.805Z,1.10
2022-12-08T06:49:26.072Z,0.90
2022-12-08T06:51:53.603Z,-0.70
2022-12-08T06:54:20.800Z,1.50
2022-12-08T06:56:48.261Z,-0.60
2022-12-08T06:59:15.500Z,-0.60
2022-12-08T07:01:43.057Z,-0.70
2022-12-08T07:04:10.247Z,-0.50
2022-12-08T07:06:37.782Z,-0.60
2022-12-08T07:09:05.063Z,-0.60
2022-12-08T07:11:32.589Z,-0.60
2022-12-08T07:13:59.888Z,1.10
2022-12-08T07:16:30.612Z,0.90
2022-12-08T07:18:57.929Z,-0.60
2022-12-08T07:21:26.032Z,-0.60
2022-12-08T07:23:57.675Z,0.80
2022-12-08T07:26:27.104Z,-0.60
2022-12-08T07:28:54.652Z,-0.50
2022-12-08T07:31:26.396Z,-0.60
2022-12-08T07:33:55.259Z,-0.60
2022-12-08T07:36:23.484Z,-0.60
2022-12-08T07:38:53.329Z,-0.60
2022-12-08T07:41:23.907Z,-0.60
2022-12-08T07:43:52.020Z,-0.70
2022-12-08T07:46:22.655Z,-0.70
2022-12-08T07:48:50.246Z,-0.70
2022-12-08T07:51:18.970Z,-0.70
2022-12-08T07:53:53.517Z,-0.70
2022-12-08T07:56:22.421Z,-0.70
2022-12-08T07:58:49.844Z,-0.60
2022-12-08T08:01:30.998Z,-0.60
2022-12-08T08:04:04.557Z,-0.70
2022-12-08T08:06:33.828Z,-0.60
2022-12-08T08:09:01.359Z,1.00
2022-12-08T08:11:29.147Z,-0.50
2022-12-08T08:13:57.227Z,-0.60
2022-12-08T08:16:24.796Z,0.10
2022-12-08T08:18:52.415Z,1.00
2022-12-08T08:21:45.374Z,-0.50
2022-12-08T08:24:08.757Z,-0.40
2022-12-08T08:26:37.579Z,-0.40
2022-12-08T08:29:04.937Z,1.70
2022-12-08T08:31:32.571Z,-0.20
2022-12-08T08:34:05.049Z,-0.10
2022-12-08T08:36:33.368Z,-0.20
2022-12-08T08:39:01.264Z,-0.10
2022-12-08T08:41:28.974Z,0.90
2022-12-08T08:43:56.229Z,0.20
2022-12-08T08:46:23.938Z,0.10
2022-12-08T08:48:51.245Z,0.30
2022-12-08T08:51:18.977Z,0.30
2022-12-08T08:53:46.423Z,0.50
2022-12-08T08:56:16.124Z,0.40
2022-12-08T08:58:43.612Z,0.40
2022-12-08T09:01:16.633Z,0.50
2022-12-08T09:03:45.293Z,0.80
2022-12-08T09:06:13.894Z,1.40
2022-12-08T09:08:42.335Z,0.80
2022-12-08T09:11:10.564Z,0.80
2022-12-08T09:13:38.649Z,0.90
2022-12-08T09:16:08.474Z,0.80
2022-12-08T09:18:35.887Z,0.70
2022-12-08T09:21:05.686Z,0.80
2022-12-08T09:23:35.813Z,0.80
2022-12-08T09:26:05.261Z,0.90
2022-12-08T09:28:33.019Z,0.90
2022-12-08T09:31:01.266Z,0.80
2022-12-08T09:33:28.769Z,0.80
2022-12-08T09:35:56.751Z,0.90
2022-12-08T09:38:24.039Z,2.20
2022-12-08T09:40:54.076Z,1.20
2022-12-08T09:43:24.342Z,0.90
2022-12-08T09:45:52.544Z,0.90
2022-12-08T09:48:24.581Z,0.90
2022-12-08T09:50:55.989Z,2.50
2022-12-08T09:53:35.878Z,0.80
2022-12-08T09:56:12.958Z,0.90
2022-12-08T09:58:49.137Z,0.90
2022-12-08T10:01:17.510Z,1.00
2022-12-08T10:03:45.096Z,1.80
2022-12-08T10:06:21.996Z,1.00
2022-12-08T10:09:26.246Z,0.90
2022-12-08T10:11:58.181Z,0.90
2022-12-08T10:14:42.212Z,0.80
2022-12-08T10:17:31.054Z,0.90
2022-12-08T10:20:05.009Z,0.90
2022-12-08T10:22:39.858Z,1.00
2022-12-08T10:25:28.771Z,0.90
2022-12-08T10:27:58.668Z,0.90
2022-12-08T10:30:26.048Z,0.90
2022-12-08T10:32:54.848Z,0.90
2022-12-08T10:35:23.229Z,0.90
2022-12-08T10:38:03.013Z,0.90
2022-12-08T10:40:42.339Z,0.90
2022-12-08T10:43:23.540Z,1.70
2022-12-08T10:45:51.545Z,1.00
2022-12-08T10:48:31.274Z,1.00
2022-12-08T10:51:00.031Z,1.10
2022-12-08T10:53:33.587Z,1.00
2022-12-08T10:56:04.332Z,1.00
2022-12-08T10:58:43.582Z,1.20
2022-12-08T11:01:18.130Z,1.20
2022-12-08T11:03:53.370Z,1.10
2022-12-08T11:06:29.425Z,1.20
2022-12-08T11:09:02.856Z,1.30
2022-12-08T11:11:53.682Z,1.30
2022-12-08T11:14:26.546Z,1.30
2022-12-08T11:16:56.962Z,1.30
2022-12-08T11:19:29.776Z,1.40
2022-12-08T11:21:57.500Z,-0.50
2022-12-08T11:24:30.227Z,1.20
2022-12-08T11:27:05.782Z,1.20
2022-12-08T11:29:36.439Z,1.20
2022-12-08T11:32:15.019Z,1.20
2022-12-08T11:35:02.433Z,1.30
2022-12-08T11:37:43.941Z,1.40
2022-12-08T11:40:26.458Z,1.40
2022-12-08T11:43:15.334Z,1.30
2022-12-08T11:45:44.519Z,1.50
2022-12-08T11:48:16.052Z,1.50
2022-12-08T11:50:55.873Z,2.10
2022-12-08T11:53:47.603Z,1.40
2022-12-08T11:56:44.635Z,1.50
2022-12-08T11:59:27.223Z,1.50
2022-12-08T12:01:55.207Z,1.50
2022-12-08T12:04:53.200Z,1.70
2022-12-08T12:07:42.067Z,1.50
2022-12-08T12:10:18.679Z,1.60
2022-12-08T12:13:05.121Z,1.60
2022-12-08T12:16:10.112Z,1.60
2022-12-08T12:18:57.470Z,1.50
2022-12-08T12:21:38.578Z,2.50
2022-12-08T12:24:28.378Z,1.60
2022-12-08T12:27:13.974Z,1.60
2022-12-08T12:30:31.052Z,1.60
2022-12-08T12:33:02.464Z,1.60
2022-12-08T12:35:45.419Z,1.70
2022-12-08T12:38:59.450Z,1.70
2022-12-08T12:41:42.352Z,1.70
2022-12-08T12:44:13.873Z,1.70
2022-12-08T12:46:50.856Z,1.70
2022-12-08T12:49:44.301Z,3.00
2022-12-08T12:52:19.082Z,1.80
2022-12-08T12:55:26.672Z,2.20
2022-12-08T12:57:57.261Z,1.70
2022-12-08T13:00:27.311Z,1.80
2022-12-08T13:02:58.348Z,1.70
2022-12-08T13:05:46.039Z,1.70
2022-12-08T13:08:24.083Z,2.40
2022-12-08T13:11:07.484Z,1.70
2022-12-08T13:13:39.287Z,1.80
2022-12-08T13:16:18.462Z,2.50
2022-12-08T13:18:50.589Z,1.90
2022-12-08T13:21:22.101Z,1.90
2022-12-08T13:24:08.331Z,1.80
2022-12-08T13:26:44.572Z,1.90
2022-12-08T13:29:21.957Z,1.90
2022-12-08T13:32:00.480Z,1.90
2022-12-08T13:34:51.734Z,1.90
2022-12-08T13:37:26.775Z,1.90
2022-12-08T13:40:05.747Z,1.90
2022-12-08T13:42:59.123Z,1.90
2022-12-08T13:46:12.146Z,1.90
2022-12-08T13:49:41.904Z,1.90
2022-12-08T13:57:16.684Z,2.50
2022-12-08T13:59:45.828Z,2.00
2022-12-08T14:02:25.615Z,2.00
2022-12-08T14:07:42.363Z,2.10
2022-12-08T14:10:36.306Z,2.00
2022-12-08T14:13:12.337Z,4.00
2022-12-08T14:15:40.656Z,3.70
2022-12-08T14:18:25.238Z,3.10
2022-12-08T14:21:20.703Z,1.90
2022-12-08T14:23:49.383Z,1.90
2022-12-08T14:26:18.170Z,1.80
2022-12-08T14:28:45.843Z,1.80
2022-12-08T14:31:14.865Z,2.50
2022-12-08T14:33:43.228Z,1.70
2022-12-08T14:36:21.178Z,1.50
2022-12-08T14:38:51.844Z,1.50
2022-12-08T14:41:27.462Z,1.40
2022-12-08T14:44:00.651Z,1.20
2022-12-08T14:46:29.537Z,2.50
2022-12-08T14:48:58.326Z,1.10
2022-12-08T14:51:33.513Z,1.20
2022-12-08T14:54:13.971Z,0.80
2022-12-08T14:56:54.475Z,0.80
2022-12-08T14:59:30.512Z,0.70
2022-12-08T15:02:16.265Z,0.70
2022-12-08T15:04:47.739Z,0.70
2022-12-08T15:07:21.837Z,1.00
2022-12-08T15:10:06.838Z,1.00
2022-12-08T15:12:34.526Z,1.20
2022-12-08T15:15:17.760Z,1.20
2022-12-08T15:17:48.259Z,1.30
2022-12-08T15:20:41.140Z,1.30
2022-12-08T15:23:57.604Z,1.40
2022-12-08T15:26:28.113Z,1.50
2022-12-08T15:28:56.160Z,1.60
2022-12-08T15:31:24.060Z,1.60
2022-12-08T15:33:51.502Z,1.70
2022-12-08T15:36:19.056Z,1.70
2022-12-08T15:38:46.424Z,2.90
2022-12-08T15:41:15.364Z,1.70
2022-12-08T15:43:43.122Z,1.70
2022-12-08T15:46:11.802Z,1.70
2022-12-08T15:48:39.276Z,1.80
2022-12-08T15:51:06.949Z,1.80
2022-12-08T15:53:34.776Z,3.50
2022-12-08T15:58:57.047Z,1.80
2022-12-08T16:01:26.401Z,3.30
2022-12-08T16:04:47.463Z,1.70
2022-12-08T16:09:42.506Z,1.60
2022-12-08T16:18:25.145Z,3.00
2022-12-08T16:23:44.504Z,1.50
2022-12-08T16:29:04.759Z,1.60
2022-12-08T16:31:33.122Z,1.40
2022-12-08T16:34:01.312Z,1.90
2022-12-08T16:36:28.945Z,1.40
2022-12-08T16:38:56.731Z,1.50
2022-12-08T16:41:43.045Z,1.60
2022-12-08T16:44:11.015Z,1.60
2022-12-08T16:46:38.395Z,1.60
2022-12-08T16:49:09.260Z,1.80
2022-12-08T16:51:36.751Z,1.60
2022-12-08T16:54:04.458Z,2.00
2022-12-08T16:56:33.461Z,1.60
2022-12-08T16:59:02.588Z,1.70
2022-12-08T17:01:30.239Z,3.50
2022-12-08T17:06:45.754Z,1.60
2022-12-08T17:09:13.558Z,1.60
2022-12-08T17:11:43.302Z,1.60
2022-12-08T17:14:13.323Z,1.70
2022-12-08T17:16:41.391Z,1.60
2022-12-08T17:19:10.469Z,1.70
2022-12-08T17:21:38.437Z,1.70
2022-12-08T17:24:06.912Z,1.70
2022-12-08T17:26:35.746Z,1.70
2022-12-08T17:29:04.390Z,1.80
2022-12-08T17:31:33.555Z,1.70
2022-12-08T17:34:10.480Z,1.80
2022-12-08T17:36:38.173Z,1.90
2022-12-08T17:39:06.500Z,1.80
2022-12-08T17:41:35.473Z,1.80
2022-12-08T17:44:04.035Z,1.80
2022-12-08T17:46:32.307Z,1.80
2022-12-08T17:49:09.323Z,1.90
2022-12-08T17:51:36.841Z,3.10
2022-12-08T17:54:06.232Z,1.90
2022-12-08T17:56:33.885Z,1.80
2022-12-08T17:59:04.311Z,1.70
2022-12-08T18:01:34.694Z,1.80
2022-12-08T18:04:04.922Z,1.60
2022-12-08T18:06:33.576Z,1.70
2022-12-08T18:09:02.755Z,1.60
2022-12-08T18:11:30.914Z,1.60
2022-12-08T18:13:59.033Z,1.70
2022-12-08T18:16:27.858Z,1.70
2022-12-08T18:18:55.778Z,1.70
2022-12-08T18:21:24.060Z,1.70
2022-12-08T18:23:52.449Z,1.70
2022-12-08T18:26:20.850Z,1.80
2022-12-08T18:28:49.291Z,1.80
2022-12-08T18:31:20.201Z,1.80
2022-12-08T18:33:50.157Z,1.80
2022-12-08T18:36:21.356Z,1.80
2022-12-08T18:38:49.492Z,1.90
2022-12-08T18:41:21.379Z,1.90
2022-12-08T18:43:49.637Z,1.90
2022-12-08T18:46:17.442Z,1.90
2022-12-08T18:48:48.554Z,1.90
2022-12-08T18:51:22.790Z,2.00
2022-12-08T18:53:51.390Z,2.00
2022-12-08T18:56:30.771Z,2.00
2022-12-08T18:59:03.525Z,2.00
2022-12-08T19:01:36.598Z,2.00
2022-12-08T19:04:28.015Z,2.00
2022-12-08T19:06:57.659Z,2.10
2022-12-08T19:09:27.167Z,2.10
2022-12-08T19:11:55.884Z,2.10
2022-12-08T19:14:28.152Z,2.10
2022-12-08T19:16:59.761Z,2.20
2022-12-08T19:19:28.279Z,2.10
2022-12-08T19:21:56.246Z,3.00
2022-12-08T19:24:24.738Z,2.00
2022-12-08T19:26:52.457Z,2.00
2022-12-08T19:29:20.963Z,2.00
2022-12-08T19:31:48.358Z,2.00
2022-12-08T19:34:16.472Z,2.10
2022-12-08T19:36:44.693Z,2.00
2022-12-08T19:39:42.318Z,1.90
2022-12-08T19:42:39.570Z,2.00
2022-12-08T19:45:14.539Z,1.90
2022-12-08T19:47:43.203Z,1.90
2022-12-08T19:50:32.476Z,1.80
2022-12-08T19:53:02.060Z,1.70
2022-12-08T19:55:30.624Z,1.70
2022-12-08T19:57:58.647Z,1.60
2022-12-08T20:00:26.504Z,1.50
2022-12-08T20:02:54.560Z,1.50
2022-12-08T20:05:26.070Z,1.50
2022-12-08T20:07:56.021Z,1.50
2022-12-08T20:10:34.061Z,1.50
2022-12-08T20:13:21.666Z,1.40
2022-12-08T20:15:50.115Z,1.40
2022-12-08T20:18:18.490Z,1.40
2022-12-08T20:20:47.591Z,1.50
2022-12-08T20:23:16.261Z,1.40
2022-12-08T20:25:45.845Z,1.40
2022-12-08T20:28:13.638Z,1.40
2022-12-08T20:30:42.581Z,1.40
2022-12-08T20:33:12.932Z,1.40
2022-12-08T20:35:41.252Z,1.40
2022-12-08T20:38:08.911Z,1.30
2022-12-08T20:40:37.648Z,1.30
2022-12-08T20:43:05.759Z,1.20
2022-12-08T20:45:33.810Z,1.20
2022-12-08T20:48:01.621Z,1.20
2022-12-08T20:50:30.382Z,1.20
2022-12-08T20:52:58.549Z,1.20
2022-12-08T20:55:29.694Z,1.20
2022-12-08T20:57:57.672Z,1.10
2022-12-08T21:00:27.635Z,1.10
2022-12-08T21:02:57.000Z,1.10
2022-12-08T21:05:25.571Z,1.10
2022-12-08T21:07:54.072Z,1.10
2022-12-08T21:10:22.835Z,1.10
2022-12-08T21:12:50.930Z,1.10
2022-12-08T21:15:20.451Z,1.10
2022-12-08T21:17:48.890Z,1.10
2022-12-08T21:20:18.399Z,1.10
2022-12-08T21:22:46.526Z,1.10
2022-12-08T21:25:16.821Z,1.00
2022-12-08T21:27:45.184Z,1.00
2022-12-08T21:30:15.323Z,1.00
2022-12-08T21:32:44.070Z,1.10
2022-12-08T21:35:12.760Z,1.00
2022-12-08T21:37:42.352Z,1.00
2022-12-08T21:40:13.677Z,1.00
2022-12-08T21:42:45.482Z,1.10
2022-12-08T21:45:19.696Z,1.10
2022-12-08T21:47:49.305Z,1.00
2022-12-08T21:50:18.510Z,1.00
2022-12-08T21:52:49.114Z,1.00
2022-12-08T21:55:20.474Z,1.00
2022-12-08T21:57:48.204Z,1.00
2022-12-08T22:00:18.163Z,0.90
2022-12-08T22:02:46.875Z,0.80
2022-12-08T22:05:15.742Z,0.80
2022-12-08T22:07:44.006Z,0.80
2022-12-08T22:10:12.716Z,0.90
2022-12-08T22:12:41.096Z,0.90
2022-12-08T22:15:10.296Z,0.90
2022-12-08T22:17:40.450Z,0.90
2022-12-08T22:20:12.136Z,1.00
2022-12-08T22:22:40.558Z,0.80
2022-12-08T22:25:12.830Z,0.70
2022-12-08T22:27:41.738Z,0.60
2022-12-08T22:30:11.048Z,0.60
2022-12-08T22:32:39.404Z,0.60
2022-12-08T22:35:07.526Z,0.70
2022-12-08T22:37:35.095Z,0.70
2022-12-08T22:40:03.612Z,0.80
2022-12-08T22:42:31.237Z,0.90
2022-12-08T22:44:59.184Z,1.00
2022-12-08T22:47:26.802Z,0.90
2022-12-08T22:49:54.687Z,0.80
2022-12-08T22:52:22.088Z,0.90
2022-12-08T22:54:50.218Z,0.90
2022-12-08T22:57:17.956Z,0.90
2022-12-08T22:59:46.036Z,1.90
2022-12-08T23:02:13.846Z,0.90
2022-12-08T23:04:41.836Z,1.00
2022-12-08T23:07:09.321Z,0.90
2022-12-08T23:09:37.262Z,0.90
2022-12-08T23:12:05.419Z,0.90
2022-12-08T23:14:33.393Z,1.00
2022-12-08T23:17:01.100Z,1.10
2022-12-08T23:19:28.833Z,0.90
2022-12-08T23:21:56.240Z,0.90
2022-12-08T23:24:24.101Z,0.90
2022-12-08T23:26:51.470Z,0.80
2022-12-08T23:29:19.262Z,0.90
2022-12-08T23:31:46.777Z,1.00
2022-12-08T23:34:14.967Z,0.90
2022-12-08T23:36:43.010Z,1.00
2022-12-08T23:39:11.567Z,1.00
2022-12-08T23:41:38.843Z,0.90
2022-12-08T23:44:06.635Z,0.90
2022-12-08T23:46:34.008Z,1.40
2022-12-08T23:49:01.598Z,1.00
2022-12-08T23:51:28.849Z,1.10
2022-12-08T23:53:56.672Z,1.00
2022-12-08T23:56:30.042Z,0.90
2022-12-08T23:58:58.507Z,0.80
